Time;durP1;ratioP1;P1;durP2;ratioP2;P2;SDS_P1;SDS_P2;PMS_P1;PMS_P2;Temp;Humidity;BMP_temperature;BMP_pressure;BME280_temperature;BME280_humidity;BME280_pressure;Samples;Min_cycle;Max_cycle;Signal;HPM_P1;HPM_P2
2022/09/15 00:01:56;;;;;;;6.50;0.68;;;13.30;74.40;;;;;;4139081;28;20029;-85
2022/09/15 00:03:57;;;;;;;4.95;0.77;;;13.30;74.50;;;;;;4106592;28;20326;-85
2022/09/15 00:05:57;;;;;;;4.03;0.80;;;13.40;74.50;;;;;;4109518;28;20046;-85
2022/09/15 00:07:58;;;;;;;7.85;0.75;;;13.30;74.40;;;;;;4109766;28;20086;-84
2022/09/15 00:09:59;;;;;;;11.27;1.30;;;13.20;74.30;;;;;;4136534;28;20026;-84
2022/09/15 00:12:00;;;;;;;3.60;0.80;;;13.30;74.40;;;;;;4107554;28;20106;-84
2022/09/15 00:14:04;;;;;;;7.13;1.10;;;13.20;74.20;;;;;;4108848;28;20034;-84
2022/09/15 00:16:05;;;;;;;7.90;0.98;;;13.20;74.20;;;;;;4108773;28;20034;-85
2022/09/15 00:18:06;;;;;;;7.75;0.82;;;13.20;74.20;;;;;;4104905;28;20099;-84
2022/09/15 00:20:07;;;;;;;2.92;0.65;;;13.20;74.10;;;;;;4095893;28;20735;-85
2022/09/15 00:22:07;;;;;;;3.72;0.63;;;13.20;74.10;;;;;;4106256;28;20031;-86
2022/09/15 00:24:08;;;;;;;3.28;0.60;;;13.10;74.10;;;;;;4107233;28;20014;-85
2022/09/15 00:26:11;;;;;;;3.33;0.75;;;13.10;74.10;;;;;;4108003;28;20040;-85
2022/09/15 00:28:13;;;;;;;8.48;0.90;;;13.20;74.20;;;;;;4106498;28;20027;-85
2022/09/15 00:30:14;;;;;;;5.07;0.70;;;13.10;74.10;;;;;;4107303;28;20403;-86
2022/09/15 00:32:15;;;;;;;7.10;1.00;;;13.10;74.10;;;;;;4123101;28;20040;-85
2022/09/15 00:34:16;;;;;;;4.20;0.60;;;13.10;74.00;;;;;;4103176;28;20114;-85
2022/09/15 00:36:18;;;;;;;3.45;0.73;;;13.10;74.10;;;;;;4121815;28;20077;-85
2022/09/15 00:38:19;;;;;;;4.38;0.65;;;13.10;74.00;;;;;;4108619;28;20129;-85
2022/09/15 00:40:20;;;;;;;6.50;0.95;;;13.00;74.00;;;;;;4108046;28;20264;-85
2022/09/15 00:42:21;;;;;;;4.28;0.63;;;13.10;74.10;;;;;;4107731;28;20396;-85
2022/09/15 00:44:22;;;;;;;3.65;0.52;;;13.00;74.00;;;;;;4123630;28;20050;-84
2022/09/15 00:46:41;;;;;;;9.68;1.00;;;13.00;74.00;;;;;;4104766;28;20034;-85
2022/09/15 00:48:50;;;;;;;3.42;0.85;;;13.00;74.10;;;;;;4107526;28;20019;-85
2022/09/15 00:50:55;;;;;;;5.72;1.10;;;12.90;74.00;;;;;;4106251;28;20057;-85
2022/09/15 00:52:59;;;;;;;10.27;0.85;;;12.90;74.00;;;;;;4111513;28;20093;-85
2022/09/15 00:55:09;;;;;;;7.30;1.15;;;12.90;74.10;;;;;;4110560;28;20093;-85
2022/09/15 00:57:21;;;;;;;7.15;0.90;;;12.80;74.10;;;;;;4135914;28;20645;-85
2022/09/15 00:59:27;;;;;;;12.25;0.88;;;12.80;74.20;;;;;;4120255;28;20467;-85
2022/09/15 01:01:30;;;;;;;3.42;0.77;;;12.90;74.30;;;;;;4106929;28;20522;-85
2022/09/15 01:03:32;;;;;;;5.78;0.82;;;12.80;74.30;;;;;;4106645;28;20027;-85
2022/09/15 01:05:43;;;;;;;5.07;0.83;;;12.80;74.30;;;;;;4106243;28;20050;-84
2022/09/15 01:08:04;;;;;;;3.08;0.70;;;12.80;74.40;;;;;;4124812;28;20301;-85
2022/09/15 01:10:11;;;;;;;3.42;0.73;;;12.70;74.50;;;;;;4106814;28;20023;-85
2022/09/15 01:12:12;;;;;;;8.00;0.82;;;12.70;74.30;;;;;;4104437;28;20082;-84
2022/09/15 01:14:12;;;;;;;4.85;0.80;;;12.70;74.40;;;;;;4109025;28;20035;-85
2022/09/15 01:16:50;;;;;;;8.90;1.40;;;12.80;74.60;;;;;;4101184;28;20730;-85
2022/09/15 01:19:06;;;;;;;4.35;0.80;;;12.70;74.70;;;;;;4106142;28;20035;-85
2022/09/15 01:21:18;;;;;;;5.85;0.85;;;12.60;74.50;;;;;;4104687;28;20550;-85
2022/09/15 01:23:43;;;;;;;4.32;0.68;;;12.60;75.40;;;;;;4107968;28;20521;-85
2022/09/15 01:25:55;;;;;;;2.30;0.80;;;12.60;74.80;;;;;;4123627;28;20037;-85
2022/09/15 01:28:05;;;;;;;3.80;0.77;;;12.60;74.60;;;;;;4108418;28;20578;-84
2022/09/15 01:30:20;;;;;;;5.18;1.00;;;12.60;74.50;;;;;;4109943;28;20391;-85
2022/09/15 01:35:07;;;;;;;13.55;1.08;;;12.50;74.60;;;;;;4109803;28;20427;-85
2022/09/15 01:37:16;;;;;;;9.32;1.20;;;12.50;74.60;;;;;;4107888;28;20435;-84
2022/09/15 01:39:24;;;;;;;6.25;0.70;;;12.50;74.60;;;;;;4111364;28;20125;-85
2022/09/15 01:41:34;;;;;;;4.60;0.88;;;12.50;74.70;;;;;;4111216;28;20089;-85
2022/09/15 01:43:43;;;;;;;5.47;0.95;;;12.40;74.70;;;;;;4109686;28;20058;-84
2022/09/15 01:45:46;;;;;;;8.82;0.75;;;12.40;74.70;;;;;;4126544;28;20026;-85
2022/09/15 01:47:51;;;;;;;9.85;1.02;;;12.40;74.80;;;;;;4113998;28;20030;-84
2022/09/15 01:50:02;;;;;;;6.63;1.23;;;12.40;74.80;;;;;;4109032;28;20037;-84
2022/09/15 01:52:04;;;;;;;6.82;1.35;;;12.40;74.90;;;;;;4107626;28;20037;-84
2022/09/15 01:54:06;;;;;;;7.18;1.17;;;12.50;74.90;;;;;;4103170;28;20035;-84
2022/09/15 01:56:10;;;;;;;7.30;0.93;;;12.40;74.90;;;;;;4108167;28;20110;-84
2022/09/15 01:58:11;;;;;;;3.58;0.90;;;12.40;75.00;;;;;;4105181;28;20538;-84
2022/09/15 02:00:12;;;;;;;7.90;1.20;;;12.30;74.90;;;;;;4108779;28;20045;-84
2022/09/15 02:02:21;;;;;;;4.90;0.55;;;12.30;74.80;;;;;;4109091;28;20593;-84
2022/09/15 02:04:31;;;;;;;7.43;0.80;;;12.30;74.80;;;;;;4108248;28;20460;-84
2022/09/15 02:06:42;;;;;;;7.82;1.10;;;12.30;74.80;;;;;;4109716;28;20034;-84
2022/09/15 02:08:54;;;;;;;6.85;0.95;;;12.40;75.00;;;;;;4106940;28;20499;-84
2022/09/15 02:11:05;;;;;;;9.48;1.25;;;12.30;74.90;;;;;;4105340;28;20049;-85
2022/09/15 02:13:15;;;;;;;9.15;0.70;;;12.20;74.90;;;;;;4107287;28;20058;-85
2022/09/15 02:15:41;;;;;;;7.57;1.30;;;12.20;74.90;;;;;;4107082;28;20484;-85
2022/09/15 02:17:47;;;;;;;6.50;1.83;;;12.20;75.10;;;;;;4109834;28;20045;-85
2022/09/15 02:19:54;;;;;;;6.63;0.90;;;12.20;74.90;;;;;;4104840;28;20041;-85
2022/09/15 02:22:09;;;;;;;6.90;1.00;;;12.20;75.10;;;;;;4109313;28;20084;-85
2022/09/15 02:24:17;;;;;;;4.40;0.47;;;12.20;75.30;;;;;;4124215;28;20098;-85
2022/09/15 02:26:23;;;;;;;5.30;0.88;;;12.20;75.20;;;;;;4108230;28;20035;-84
2022/09/15 02:28:30;;;;;;;7.50;1.33;;;12.20;75.30;;;;;;4109119;28;20419;-85
2022/09/15 02:30:32;;;;;;;8.50;1.40;;;12.20;75.50;;;;;;4110025;28;20042;-85
2022/09/15 02:32:35;;;;;;;7.22;1.00;;;12.20;75.40;;;;;;4139180;28;20033;-86
2022/09/15 02:34:40;;;;;;;5.68;0.88;;;12.20;75.40;;;;;;4109795;28;20034;-84
2022/09/15 02:36:43;;;;;;;9.77;1.02;;;12.20;75.50;;;;;;4109760;28;20070;-84
2022/09/15 02:38:48;;;;;;;4.40;0.95;;;12.20;75.40;;;;;;4108014;28;20191;-84
2022/09/15 02:40:49;;;;;;;7.50;1.30;;;12.20;75.60;;;;;;4136087;28;20133;-84
2022/09/15 02:42:56;;;;;;;11.63;1.48;;;12.20;75.70;;;;;;4109839;28;20502;-84
2022/09/15 02:44:58;;;;;;;6.47;0.85;;;12.20;75.70;;;;;;4110180;28;20403;-84
2022/09/15 02:47:00;;;;;;;7.20;1.13;;;12.20;75.70;;;;;;4110483;28;20030;-83
2022/09/15 02:49:01;;;;;;;7.57;1.10;;;12.20;75.90;;;;;;4107560;28;20030;-84
2022/09/15 02:51:02;;;;;;;6.53;0.90;;;12.10;75.80;;;;;;4109825;28;20286;-84
2022/09/15 02:53:03;;;;;;;9.23;1.20;;;12.20;75.90;;;;;;4108830;28;20031;-84
2022/09/15 02:55:04;;;;;;;8.40;1.58;;;12.20;76.00;;;;;;4125590;28;20030;-83
2022/09/15 02:57:05;;;;;;;3.85;0.77;;;12.20;76.00;;;;;;4106740;28;20106;-84
2022/09/15 02:59:06;;;;;;;5.30;0.90;;;12.20;76.00;;;;;;4122448;28;20101;-84
2022/09/15 03:01:09;;;;;;;7.72;1.20;;;12.20;76.00;;;;;;4122834;28;20022;-84
2022/09/15 03:03:10;;;;;;;11.63;0.98;;;12.20;75.90;;;;;;4108254;28;20027;-85
2022/09/15 03:05:13;;;;;;;13.77;1.52;;;12.20;75.80;;;;;;4109964;28;20670;-84
2022/09/15 03:07:15;;;;;;;20.60;1.88;;;12.20;75.70;;;;;;4107374;28;20114;-83
2022/09/15 03:09:16;;;;;;;9.60;1.40;;;12.30;75.80;;;;;;4109404;28;20126;-84
2022/09/15 03:11:19;;;;;;;6.70;1.20;;;12.20;75.70;;;;;;4111172;28;20054;-84
2022/09/15 03:13:21;;;;;;;8.32;1.33;;;12.20;75.60;;;;;;4141932;28;20513;-83
2022/09/15 03:15:24;;;;;;;18.33;1.50;;;12.20;75.40;;;;;;4110099;28;20030;-84
2022/09/15 03:17:24;;;;;;;8.40;0.98;;;12.20;75.40;;;;;;4110091;28;20031;-84
2022/09/15 03:19:25;;;;;;;8.38;1.10;;;12.30;75.30;;;;;;4139744;28;20123;-84
2022/09/15 03:21:28;;;;;;;11.40;1.38;;;12.20;75.00;;;;;;4112056;28;20054;-84
2022/09/15 03:23:29;;;;;;;10.52;1.55;;;12.20;75.00;;;;;;4124924;28;20101;-84
2022/09/15 03:25:29;;;;;;;8.27;1.27;;;12.20;74.90;;;;;;4109820;28;20569;-84
2022/09/15 03:27:31;;;;;;;9.40;0.90;;;12.30;75.00;;;;;;4107534;28;20018;-84
2022/09/15 03:29:31;;;;;;;5.75;0.90;;;12.30;74.90;;;;;;4109248;28;20037;-85
2022/09/15 03:31:32;;;;;;;5.43;0.80;;;12.20;74.90;;;;;;4108895;28;20027;-85
2022/09/15 03:33:33;;;;;;;11.57;1.52;;;12.20;74.90;;;;;;4108465;28;20368;-84
2022/09/15 03:35:34;;;;;;;5.82;1.10;;;12.20;74.90;;;;;;4123608;28;20026;-84
2022/09/15 03:37:35;;;;;;;6.57;0.80;;;12.30;75.00;;;;;;4108355;28;20038;-84
2022/09/15 03:39:36;;;;;;;6.82;1.10;;;12.20;74.80;;;;;;4122687;28;20030;-84
2022/09/15 03:41:37;;;;;;;4.75;0.60;;;12.20;74.70;;;;;;4105248;28;20033;-84
2022/09/15 03:43:38;;;;;;;6.35;0.80;;;12.30;74.70;;;;;;4123897;28;20022;-84
2022/09/15 03:45:39;;;;;;;7.65;0.88;;;12.20;74.70;;;;;;4106676;28;20031;-85
2022/09/15 03:47:39;;;;;;;9.45;0.95;;;12.30;74.60;;;;;;4108080;28;20106;-85
2022/09/15 03:49:40;;;;;;;9.35;1.35;;;12.20;74.50;;;;;;4109444;28;20031;-85
2022/09/15 03:51:41;;;;;;;5.97;0.95;;;12.20;74.50;;;;;;4110273;28;20058;-85
2022/09/15 03:53:42;;;;;;;5.28;1.00;;;12.20;74.40;;;;;;4087149;28;20073;-85
2022/09/15 03:55:44;;;;;;;5.30;0.65;;;12.20;74.40;;;;;;4105130;28;20023;-85
2022/09/15 03:57:44;;;;;;;5.38;1.00;;;12.20;74.40;;;;;;4109905;28;20039;-86
2022/09/15 03:59:45;;;;;;;5.13;0.70;;;12.20;74.40;;;;;;4109647;28;20063;-85
2022/09/15 04:01:47;;;;;;;9.57;1.08;;;12.20;74.40;;;;;;4110472;28;20023;-85
2022/09/15 04:03:47;;;;;;;5.45;0.90;;;12.20;74.50;;;;;;4109925;28;20090;-85
2022/09/15 04:05:48;;;;;;;7.50;1.25;;;12.10;74.40;;;;;;4104858;28;20027;-85
2022/09/15 04:07:49;;;;;;;4.97;0.80;;;12.10;74.40;;;;;;4109580;28;20030;-85
2022/09/15 04:09:50;;;;;;;8.00;1.20;;;12.10;74.40;;;;;;4109571;28;20085;-85
2022/09/15 04:11:50;;;;;;;4.97;0.70;;;12.10;74.50;;;;;;4110057;28;20023;-85
2022/09/15 04:13:52;;;;;;;4.57;0.98;;;12.10;74.50;;;;;;4109092;28;20101;-85
2022/09/15 04:16:00;;;;;;;7.40;0.80;;;12.10;74.60;;;;;;4140941;28;20079;-86
2022/09/15 04:18:01;;;;;;;9.30;1.15;;;12.10;74.60;;;;;;4106741;28;20050;-85
2022/09/15 04:20:02;;;;;;;5.15;0.85;;;12.10;74.60;;;;;;4110682;28;20034;-85
2022/09/15 04:22:03;;;;;;;10.00;1.00;;;12.10;74.60;;;;;;4112362;28;20082;-85
2022/09/15 04:24:04;;;;;;;7.57;1.10;;;12.10;74.80;;;;;;4140280;28;20021;-85
2022/09/15 04:26:07;;;;;;;6.25;1.13;;;12.10;74.80;;;;;;4101553;28;20588;-85
2022/09/15 04:28:08;;;;;;;7.43;0.95;;;12.10;74.90;;;;;;4109023;28;20038;-84
2022/09/15 04:30:09;;;;;;;12.55;1.33;;;12.10;74.90;;;;;;4105448;28;20236;-84
2022/09/15 04:32:10;;;;;;;4.70;1.00;;;12.10;74.90;;;;;;4110159;28;20037;-83
2022/09/15 04:34:11;;;;;;;11.27;1.27;;;12.10;74.90;;;;;;4123198;28;20039;-84
2022/09/15 04:36:17;;;;;;;5.88;1.00;;;12.10;74.90;;;;;;4084637;28;20044;-84
2022/09/15 04:38:18;;;;;;;5.93;1.00;;;12.10;75.00;;;;;;4109073;28;20162;-86
2022/09/15 04:40:19;;;;;;;3.47;0.55;;;12.10;75.00;;;;;;4110065;28;20035;-85
2022/09/15 04:42:20;;;;;;;7.10;0.90;;;12.20;75.10;;;;;;4110589;28;20760;-86
2022/09/15 04:44:21;;;;;;;6.93;0.95;;;12.10;75.00;;;;;;4111265;28;20506;-85
2022/09/15 04:46:22;;;;;;;9.25;1.20;;;12.20;75.20;;;;;;4100552;28;20074;-84
2022/09/15 04:48:23;;;;;;;11.10;1.13;;;12.10;75.10;;;;;;4108681;28;20090;-84
2022/09/15 04:50:24;;;;;;;7.03;1.27;;;12.20;75.20;;;;;;4101777;28;20031;-85
2022/09/15 04:52:25;;;;;;;10.02;1.63;;;12.10;75.20;;;;;;4108285;28;20073;-84
2022/09/15 04:54:25;;;;;;;5.93;0.80;;;12.10;75.20;;;;;;4104159;28;20042;-84
2022/09/15 04:56:26;;;;;;;11.43;4.82;;;12.10;75.30;;;;;;4112809;28;20095;-85
2022/09/15 04:58:27;;;;;;;10.75;1.98;;;12.20;75.30;;;;;;4116222;28;20037;-85
2022/09/15 05:00:29;;;;;;;8.82;1.45;;;12.10;75.30;;;;;;4115602;28;20030;-85
2022/09/15 05:02:30;;;;;;;3.42;0.80;;;12.10;75.30;;;;;;4116186;28;20494;-84
2022/09/15 05:04:30;;;;;;;7.55;1.00;;;12.10;75.40;;;;;;4099526;28;20027;-85
2022/09/15 05:06:32;;;;;;;4.82;0.63;;;12.10;75.30;;;;;;4120979;28;20018;-85
2022/09/15 05:08:32;;;;;;;5.70;0.75;;;12.10;75.30;;;;;;4118317;28;20045;-86
2022/09/15 05:10:33;;;;;;;8.55;1.05;;;12.10;75.30;;;;;;4115739;28;20633;-86
2022/09/15 05:12:34;;;;;;;7.20;0.80;;;12.10;75.30;;;;;;4116862;28;20033;-84
2022/09/15 05:14:34;;;;;;;4.43;1.15;;;12.00;75.30;;;;;;4145907;28;20030;-84
2022/09/15 05:16:35;;;;;;;9.25;0.57;;;12.00;75.30;;;;;;4116634;28;20081;-84
2022/09/15 05:18:36;;;;;;;4.20;0.90;;;12.00;75.30;;;;;;4131981;28;20625;-84
2022/09/15 05:20:37;;;;;;;6.88;1.13;;;12.00;75.30;;;;;;4115524;28;20685;-84
2022/09/15 05:22:37;;;;;;;11.52;1.10;;;12.00;75.30;;;;;;4130291;28;20018;-85
2022/09/15 05:24:38;;;;;;;7.95;1.10;;;12.00;75.40;;;;;;4114958;28;20035;-84
2022/09/15 05:26:39;;;;;;;9.23;1.33;;;12.00;75.60;;;;;;4114338;28;20030;-84
2022/09/15 05:28:40;;;;;;;11.43;1.15;;;12.00;75.60;;;;;;4127334;28;20019;-84
2022/09/15 05:30:41;;;;;;;8.43;1.17;;;12.10;75.70;;;;;;4116052;28;20022;-83
2022/09/15 05:32:41;;;;;;;7.05;0.80;;;12.00;75.70;;;;;;4116887;28;20030;-85
2022/09/15 05:34:42;;;;;;;5.90;1.20;;;12.00;75.80;;;;;;4115238;28;20037;-85
2022/09/15 05:36:43;;;;;;;7.93;0.77;;;11.90;75.80;;;;;;4114665;28;20061;-84
2022/09/15 05:38:44;;;;;;;6.03;1.23;;;11.90;75.80;;;;;;4148789;28;20030;-84
2022/09/15 05:40:44;;;;;;;5.82;0.85;;;11.90;75.80;;;;;;4113842;28;20038;-84
2022/09/15 05:42:45;;;;;;;5.40;0.82;;;12.10;76.10;;;;;;4114473;28;20031;-84
2022/09/15 05:44:46;;;;;;;4.55;0.70;;;12.00;76.00;;;;;;4114623;28;20023;-85
2022/09/15 05:46:47;;;;;;;12.05;1.00;;;12.00;76.10;;;;;;4114122;28;20037;-84
2022/09/15 05:48:48;;;;;;;3.95;0.47;;;12.00;76.30;;;;;;4147450;28;20033;-86
2022/09/15 05:50:53;;;;;;;9.35;0.70;;;12.00;76.30;;;;;;4114843;28;20101;-85
2022/09/15 05:52:54;;;;;;;10.45;1.40;;;12.00;76.40;;;;;;4111542;28;20058;-84
2022/09/15 05:54:54;;;;;;;5.40;0.98;;;12.10;76.50;;;;;;4117019;28;20030;-85
2022/09/15 05:56:55;;;;;;;9.98;1.10;;;12.00;76.50;;;;;;4116543;28;20031;-85
2022/09/15 05:58:56;;;;;;;11.07;1.30;;;12.00;76.50;;;;;;4117140;28;20039;-84
2022/09/15 06:01:04;;;;;;;24.00;2.35;;;12.20;76.60;;;;;;4117625;28;20384;-85
2022/09/15 06:03:04;;;;;;;20.13;1.85;;;12.10;77.30;;;;;;4116003;28;20384;-84
2022/09/15 06:05:06;;;;;;;7.78;0.98;;;12.10;76.50;;;;;;4113850;28;20023;-84
2022/09/15 06:07:07;;;;;;;12.88;1.70;;;12.10;76.60;;;;;;4114594;28;20073;-85
2022/09/15 06:09:08;;;;;;;7.45;1.20;;;12.20;76.70;;;;;;4114747;28;20031;-84
2022/09/15 06:11:17;;;;;;;7.80;1.00;;;12.20;77.30;;;;;;4115322;28;20023;-84
2022/09/15 06:13:17;;;;;;;9.57;1.05;;;12.20;76.60;;;;;;4115294;28;20578;-85
2022/09/15 06:15:19;;;;;;;6.72;1.13;;;12.20;76.60;;;;;;4113641;28;20090;-86
2022/09/15 06:17:21;;;;;;;10.35;0.88;;;12.20;76.60;;;;;;4115445;28;20521;-85
2022/09/15 06:19:22;;;;;;;7.30;1.05;;;12.30;76.60;;;;;;4115322;28;20027;-84
2022/09/15 06:21:25;;;;;;;5.90;0.77;;;12.30;76.60;;;;;;4107546;28;20223;-84
2022/09/15 06:23:26;;;;;;;9.45;1.10;;;12.50;76.80;;;;;;4108733;28;20023;-84
2022/09/15 06:25:27;;;;;;;7.00;1.08;;;12.50;76.70;;;;;;4109217;28;20146;-84
2022/09/15 06:27:27;;;;;;;6.75;0.98;;;12.40;76.70;;;;;;4113319;28;20562;-86
2022/09/15 06:29:28;;;;;;;8.02;1.33;;;12.40;76.60;;;;;;4115744;28;20054;-85
2022/09/15 06:31:31;;;;;;;5.32;0.85;;;12.50;76.70;;;;;;4127084;28;20022;-85
2022/09/15 06:33:32;;;;;;;9.35;1.10;;;12.50;76.60;;;;;;4114658;28;20503;-85
2022/09/15 06:35:33;;;;;;;6.50;1.05;;;12.60;76.70;;;;;;4144647;28;20097;-85
2022/09/15 06:37:34;;;;;;;5.60;0.85;;;12.60;76.60;;;;;;4115520;28;20031;-85
2022/09/15 06:39:35;;;;;;;5.85;0.95;;;12.60;76.70;;;;;;4114617;28;20439;-84
2022/09/15 06:41:35;;;;;;;4.45;0.82;;;12.70;76.60;;;;;;4112692;28;20122;-84
2022/09/15 06:43:36;;;;;;;5.40;1.02;;;12.80;76.60;;;;;;4129210;28;20022;-84
2022/09/15 06:45:37;;;;;;;6.38;0.93;;;12.80;76.60;;;;;;4111247;28;20545;-84
2022/09/15 06:47:37;;;;;;;7.20;1.00;;;12.80;77.30;;;;;;4111100;28;20126;-84
2022/09/15 06:49:38;;;;;;;8.80;1.00;;;12.90;76.60;;;;;;4114795;28;20556;-84
2022/09/15 06:51:39;;;;;;;8.07;1.20;;;12.90;76.50;;;;;;4116732;28;20027;-85
2022/09/15 06:53:39;;;;;;;5.43;1.00;;;12.90;76.20;;;;;;4113713;28;20031;-85
2022/09/15 06:55:40;;;;;;;10.20;0.90;;;13.00;76.80;;;;;;4115442;28;20036;-84
2022/09/15 06:57:41;;;;;;;11.90;1.15;;;13.00;75.80;;;;;;4128160;28;20030;-85
2022/09/15 06:59:41;;;;;;;7.60;1.13;;;13.10;75.50;;;;;;4114031;28;20153;-85
2022/09/15 07:01:42;;;;;;;13.43;1.48;;;13.10;75.20;;;;;;4128199;28;20030;-86
2022/09/15 07:03:43;;;;;;;9.25;1.17;;;13.20;74.90;;;;;;4113957;28;20022;-84
2022/09/15 07:05:45;;;;;;;10.07;1.45;;;13.20;74.60;;;;;;4112261;28;20030;-85
2022/09/15 07:07:45;;;;;;;9.73;1.70;;;13.20;74.40;;;;;;4107625;28;20451;-85
2022/09/15 07:09:46;;;;;;;10.93;1.23;;;13.20;74.30;;;;;;4115570;28;20038;-85
2022/09/15 07:11:47;;;;;;;10.32;1.70;;;13.30;74.00;;;;;;4114663;28;20039;-85
2022/09/15 07:13:48;;;;;;;5.28;1.00;;;13.40;73.30;;;;;;4146138;28;20552;-85
2022/09/15 07:15:59;;;;;;;9.43;1.33;;;13.50;73.00;;;;;;4127192;28;20076;-85
2022/09/15 07:18:00;;;;;;;7.82;1.15;;;13.40;72.80;;;;;;4114986;28;20033;-86
2022/09/15 07:20:01;;;;;;;5.07;1.02;;;13.60;72.40;;;;;;4115252;28;20391;-84
2022/09/15 07:22:01;;;;;;;6.75;1.10;;;13.60;71.90;;;;;;4116424;28;20035;-85
2022/09/15 07:24:02;;;;;;;6.50;0.80;;;13.60;71.30;;;;;;4115191;28;20558;-85
2022/09/15 07:26:16;;;;;;;5.53;1.27;;;13.60;71.20;;;;;;4144982;28;20052;-85
2022/09/15 07:28:18;;;;;;;8.77;1.08;;;13.60;70.60;;;;;;4117389;28;20281;-86
2022/09/15 07:30:18;;;;;;;6.63;1.30;;;13.70;70.30;;;;;;4130493;28;20030;-85
2022/09/15 07:32:19;;;;;;;7.20;1.17;;;13.80;70.40;;;;;;4115914;28;20034;-85
2022/09/15 07:34:19;;;;;;;7.10;1.23;;;13.80;70.10;;;;;;4118181;28;20034;-85
2022/09/15 07:36:21;;;;;;;4.05;1.00;;;13.80;70.00;;;;;;4145357;28;20034;-85
2022/09/15 07:38:21;;;;;;;7.13;1.02;;;14.00;70.00;;;;;;4115700;28;20050;-86
2022/09/15 07:40:22;;;;;;;5.28;1.13;;;14.00;69.90;;;;;;4116546;28;20368;-86
2022/09/15 07:42:22;;;;;;;14.20;1.35;;;14.00;69.70;;;;;;4116814;28;20065;-86
2022/09/15 07:44:23;;;;;;;8.95;1.30;;;14.00;69.30;;;;;;4116878;28;20034;-85
2022/09/15 07:46:25;;;;;;;7.18;1.58;;;14.00;69.10;;;;;;4115671;28;20636;-85
2022/09/15 07:48:27;;;;;;;8.65;1.15;;;14.00;68.90;;;;;;4116539;28;20037;-85
2022/09/15 07:50:27;;;;;;;12.13;1.25;;;14.10;68.60;;;;;;4118651;28;20104;-86
2022/09/15 07:52:29;;;;;;;5.85;1.10;;;14.20;68.30;;;;;;4132307;28;20034;-85
2022/09/15 07:54:30;;;;;;;7.65;1.30;;;14.20;68.10;;;;;;4117623;28;20030;-85
2022/09/15 07:56:31;;;;;;;6.40;1.30;;;14.20;67.90;;;;;;4128860;28;20061;-84
2022/09/15 07:58:32;;;;;;;3.60;0.90;;;14.30;67.50;;;;;;4117165;28;20487;-85
2022/09/15 08:00:33;;;;;;;8.65;1.33;;;14.30;67.70;;;;;;4119872;28;20144;-84
2022/09/15 08:02:34;;;;;;;18.60;1.85;;;14.30;66.80;;;;;;4116932;28;20027;-83
2022/09/15 08:04:34;;;;;;;11.77;1.80;;;14.40;65.50;;;;;;4119221;28;20081;-84
2022/09/15 08:06:35;;;;;;;6.47;1.17;;;14.30;65.00;;;;;;4108111;28;20059;-84
2022/09/15 08:08:37;;;;;;;8.70;1.10;;;14.40;65.30;;;;;;4132981;28;20812;-84
2022/09/15 08:10:39;;;;;;;9.60;1.33;;;14.40;65.00;;;;;;4121423;28;20121;-83
2022/09/15 08:12:40;;;;;;;11.23;1.08;;;14.40;65.40;;;;;;4120465;28;20046;-84
2022/09/15 08:14:41;;;;;;;10.68;1.40;;;14.40;65.70;;;;;;4119064;28;20395;-84
2022/09/15 08:16:42;;;;;;;7.30;1.30;;;14.50;65.50;;;;;;4114738;28;20047;-84
2022/09/15 08:18:43;;;;;;;5.93;1.15;;;14.50;65.40;;;;;;4115972;28;20035;-84
2022/09/15 08:20:44;;;;;;;8.13;1.75;;;14.50;65.40;;;;;;4118558;28;20027;-83
2022/09/15 08:22:45;;;;;;;8.57;1.13;;;14.50;65.30;;;;;;4108689;28;20581;-83
2022/09/15 08:24:45;;;;;;;15.02;1.35;;;14.60;65.20;;;;;;4114340;28;20069;-84
2022/09/15 08:26:46;;;;;;;11.73;1.52;;;14.60;65.50;;;;;;4112771;28;20373;-84
2022/09/15 08:28:47;;;;;;;8.60;1.20;;;14.60;65.50;;;;;;4111995;28;20460;-84
2022/09/15 08:30:48;;;;;;;6.53;1.05;;;14.60;65.30;;;;;;4105205;28;20138;-83
2022/09/15 08:32:49;;;;;;;7.18;1.15;;;14.60;65.40;;;;;;4119796;28;20412;-83
2022/09/15 08:34:49;;;;;;;8.68;1.40;;;14.60;65.10;;;;;;4117320;28;20035;-83
2022/09/15 08:36:50;;;;;;;9.52;1.55;;;14.70;65.20;;;;;;4117309;28;20035;-83
2022/09/15 08:38:51;;;;;;;6.68;0.90;;;14.80;65.30;;;;;;4146289;28;20080;-83
2022/09/15 08:41:05;;;;;;;8.48;1.17;;;14.80;65.40;;;;;;4118595;28;20117;-84
2022/09/15 08:43:15;;;;;;;12.10;1.40;;;14.80;65.20;;;;;;4114011;28;20046;-83
2022/09/15 08:45:23;;;;;;;6.85;0.93;;;14.90;64.70;;;;;;4114813;28;20039;-84
2022/09/15 08:47:29;;;;;;;7.72;1.25;;;14.90;64.50;;;;;;4116830;28;20030;-83
2022/09/15 08:49:45;;;;;;;9.75;1.95;;;15.00;64.20;;;;;;4112764;28;20037;-84
2022/09/15 08:51:48;;;;;;;7.00;1.20;;;14.90;64.30;;;;;;4131936;28;20257;-82
2022/09/15 08:53:58;;;;;;;6.10;1.33;;;14.90;63.60;;;;;;4118137;28;20102;-83
2022/09/15 08:56:03;;;;;;;9.00;1.15;;;14.90;63.40;;;;;;4121879;28;20085;-83
2022/09/15 08:58:05;;;;;;;9.10;1.02;;;14.80;63.50;;;;;;4119850;28;20034;-84
2022/09/15 09:00:13;;;;;;;4.65;0.90;;;14.90;63.90;;;;;;4135326;28;20023;-84
2022/09/15 09:02:51;;;;;;;13.30;1.67;;;14.80;64.30;;;;;;4116307;28;20104;-84
2022/09/15 09:05:20;;;;;;;15.18;1.75;;;14.80;64.50;;;;;;4118557;28;20054;-83
2022/09/15 09:07:27;;;;;;;7.50;1.52;;;14.80;64.40;;;;;;4133029;28;20094;-83
2022/09/15 09:09:50;;;;;;;9.45;1.17;;;14.80;64.10;;;;;;4147828;28;20069;-85
2022/09/15 09:12:25;;;;;;;5.95;1.13;;;14.90;63.90;;;;;;4118884;28;20113;-84
2022/09/15 09:14:31;;;;;;;8.27;1.20;;;14.90;63.80;;;;;;4115246;28;20495;-84
2022/09/15 09:17:00;;;;;;;5.85;0.98;;;14.90;63.20;;;;;;4116582;28;20620;-85
2022/09/15 09:19:16;;;;;;;6.57;1.30;;;15.00;62.30;;;;;;4116632;28;20114;-85
2022/09/15 09:21:25;;;;;;;7.95;0.90;;;15.00;62.50;;;;;;4118178;28;20031;-84
2022/09/15 09:23:30;;;;;;;9.02;1.00;;;15.10;61.90;;;;;;4097293;28;20031;-84
2022/09/15 09:25:31;;;;;;;11.82;1.10;;;15.20;62.50;;;;;;4115324;28;20539;-84
2022/09/15 09:27:33;;;;;;;6.95;1.05;;;15.20;61.20;;;;;;4113892;28;20027;-85
2022/09/15 09:29:43;;;;;;;12.00;1.30;;;15.20;60.50;;;;;;4146163;28;20026;-85
2022/09/15 09:31:49;;;;;;;8.48;1.13;;;15.20;59.90;;;;;;4114683;28;20030;-84
2022/09/15 09:34:14;;;;;;;10.80;1.75;;;15.30;60.50;;;;;;4113291;28;20054;-84
2022/09/15 09:36:15;;;;;;;6.55;1.20;;;15.30;60.30;;;;;;4112663;28;20034;-83
2022/09/15 09:38:28;;;;;;;4.55;0.88;;;15.40;60.40;;;;;;4113850;28;20415;-84
2022/09/15 09:40:30;;;;;;;8.40;1.45;;;15.50;59.90;;;;;;4144752;28;20038;-85
2022/09/15 09:42:36;;;;;;;7.97;1.25;;;15.50;59.60;;;;;;4126062;28;20627;-84
2022/09/15 09:44:38;;;;;;;7.28;1.17;;;15.60;59.20;;;;;;4145344;28;20026;-84
2022/09/15 09:46:39;;;;;;;7.85;0.88;;;15.70;59.00;;;;;;4111581;28;20058;-84
2022/09/15 09:48:46;;;;;;;11.32;1.15;;;15.70;58.40;;;;;;4126892;28;20027;-84
2022/09/15 09:50:48;;;;;;;7.70;1.20;;;15.70;58.70;;;;;;4112742;28;20034;-85
2022/09/15 09:52:49;;;;;;;6.03;1.10;;;15.80;57.60;;;;;;4114790;28;20031;-83
2022/09/15 09:55:08;;;;;;;6.22;1.05;;;15.90;56.80;;;;;;4115553;28;20031;-84
2022/09/15 09:57:11;;;;;;;6.45;1.10;;;15.80;55.50;;;;;;4114672;28;20053;-84
2022/09/15 09:59:40;;;;;;;4.88;1.00;;;15.80;55.20;;;;;;4093950;28;20114;-84
2022/09/15 10:02:02;;;;;;;8.13;1.02;;;15.80;55.60;;;;;;4112763;28;20022;-84
2022/09/15 10:04:12;;;;;;;9.82;1.52;;;15.90;56.60;;;;;;4113476;28;20138;-84
2022/09/15 10:06:19;;;;;;;8.65;1.45;;;15.90;56.20;;;;;;4112667;28;20282;-84
2022/09/15 10:08:20;;;;;;;7.70;1.40;;;15.90;56.40;;;;;;4112408;28;20562;-84
2022/09/15 10:10:23;;;;;;;10.00;1.55;;;16.10;56.20;;;;;;4110732;28;20043;-84
2022/09/15 10:12:28;;;;;;;9.85;1.73;;;16.10;56.30;;;;;;4115443;28;20133;-85
2022/09/15 10:14:40;;;;;;;15.55;1.50;;;16.00;55.70;;;;;;4114773;28;20034;-84
2022/09/15 10:16:42;;;;;;;7.20;1.45;;;16.10;56.10;;;;;;4118117;28;20519;-85
2022/09/15 10:18:42;;;;;;;8.10;1.67;;;16.20;56.20;;;;;;4129486;28;20871;-84
2022/09/15 10:20:49;;;;;;;7.95;1.15;;;16.20;55.60;;;;;;4111680;28;20094;-84
2022/09/15 10:22:51;;;;;;;9.68;1.10;;;16.20;55.70;;;;;;4105232;28;20059;-85
2022/09/15 10:24:52;;;;;;;6.05;1.10;;;16.30;55.60;;;;;;4113645;28;20019;-85
2022/09/15 10:27:16;;;;;;;6.22;1.00;;;16.40;55.80;;;;;;4113310;28;20050;-85
2022/09/15 10:29:17;;;;;;;9.65;1.42;;;16.30;55.80;;;;;;4115876;28;20128;-84
2022/09/15 10:31:30;;;;;;;6.88;1.13;;;16.30;56.00;;;;;;4111115;28;20034;-85
2022/09/15 10:33:34;;;;;;;6.82;1.00;;;16.20;56.20;;;;;;4128441;28;20180;-85
2022/09/15 10:35:41;;;;;;;9.60;1.17;;;16.10;56.20;;;;;;4113631;28;20027;-85
2022/09/15 10:37:54;;;;;;;6.85;1.42;;;16.10;56.20;;;;;;4113902;28;20023;-84
2022/09/15 10:39:59;;;;;;;11.40;1.30;;;15.90;56.20;;;;;;4103727;28;20030;-84
2022/09/15 10:42:14;;;;;;;8.70;1.77;;;15.90;56.60;;;;;;4113146;28;20119;-85
2022/09/15 10:44:14;;;;;;;8.95;1.40;;;15.80;57.10;;;;;;4113990;28;20060;-85
2022/09/15 10:46:32;;;;;;;14.38;1.98;;;15.80;57.60;;;;;;4144248;28;20073;-84
2022/09/15 10:48:43;;;;;;;6.78;1.73;;;15.70;57.70;;;;;;4124924;28;20018;-86